Time;durP1;ratioP1;P1;durP2;ratioP2;P2;SDS_P1;SDS_P2;PMS_P1;PMS_P2;Temp;Humidity;BMP_temperature;BMP_pressure;BME280_temperature;BME280_humidity;BME280_pressure;Samples;Min_cycle;Max_cycle;Signal;HPM_P1;HPM_P2
2024/01/15 00:00:52;;;;;;;17.48;16.58;;;0.00;99.90;;;;;;5080022;28;20203;-61
2024/01/15 00:03:19;;;;;;;17.47;16.57;;;0.00;99.90;;;;;;5085747;28;20223;-63
2024/01/15 00:05:47;;;;;;;17.00;16.20;;;0.00;99.90;;;;;;5070537;28;20476;-63
2024/01/15 00:08:14;;;;;;;16.57;15.77;;;0.00;99.90;;;;;;5070520;28;20203;-62
2024/01/15 00:10:41;;;;;;;16.63;15.82;;;0.00;99.90;;;;;;5069252;28;20196;-61
2024/01/15 00:13:08;;;;;;;17.00;16.20;;;0.10;99.90;;;;;;5068575;28;20229;-63
2024/01/15 00:15:34;;;;;;;16.80;15.90;;;0.10;99.90;;;;;;5072918;28;20772;-64
2024/01/15 00:18:01;;;;;;;16.90;16.00;;;0.10;99.90;;;;;;5069004;28;20222;-62
2024/01/15 00:20:28;;;;;;;16.88;15.98;;;0.00;99.90;;;;;;5068911;28;20359;-62
2024/01/15 00:22:56;;;;;;;17.67;16.77;;;0.00;99.90;;;;;;5068306;28;20242;-62
2024/01/15 00:25:23;;;;;;;15.98;15.18;;;0.00;99.90;;;;;;5071448;28;20662;-64
2024/01/15 00:27:50;;;;;;;17.10;16.20;;;0.00;99.90;;;;;;5076061;28;20216;-62
2024/01/15 00:30:17;;;;;;;16.33;15.53;;;0.00;99.90;;;;;;5074919;28;20203;-63
2024/01/15 00:32:43;;;;;;;16.40;15.60;;;0.10;99.90;;;;;;5073585;28;20199;-63
2024/01/15 00:35:10;;;;;;;16.07;15.27;;;0.10;99.90;;;;;;5072892;28;20218;-63
2024/01/15 00:37:37;;;;;;;16.08;15.27;;;0.10;99.90;;;;;;5073966;28;20215;-62
2024/01/15 00:40:07;;;;;;;16.97;16.07;;;0.20;99.90;;;;;;5066612;28;20673;-63
2024/01/15 00:42:34;;;;;;;17.95;16.95;;;0.20;99.90;;;;;;5072832;28;20234;-62
2024/01/15 00:45:01;;;;;;;15.80;15.00;;;0.10;99.90;;;;;;5073871;28;20223;-62
2024/01/15 00:47:27;;;;;;;17.23;16.27;;;0.20;99.90;;;;;;5071259;28;20646;-61
2024/01/15 00:49:54;;;;;;;16.77;15.97;;;0.20;99.90;;;;;;5073293;28;20204;-63
2024/01/15 00:52:21;;;;;;;15.97;15.17;;;0.30;99.90;;;;;;5072615;28;20203;-61
2024/01/15 00:54:47;;;;;;;17.17;16.27;;;0.30;99.90;;;;;;5070685;28;20223;-64
2024/01/15 00:57:16;;;;;;;17.50;16.50;;;0.30;99.90;;;;;;5072325;28;20207;-63
2024/01/15 00:59:42;;;;;;;16.30;15.50;;;0.40;99.90;;;;;;5069513;28;20222;-62
2024/01/15 01:02:09;;;;;;;16.33;15.53;;;0.40;99.90;;;;;;5072980;28;20223;-62
2024/01/15 01:04:36;;;;;;;15.93;15.13;;;0.40;99.90;;;;;;5069854;28;20690;-63
2024/01/15 01:07:02;;;;;;;15.47;14.77;;;0.40;99.90;;;;;;5071840;28;20211;-63
2024/01/15 01:09:30;;;;;;;17.00;16.10;;;0.40;99.90;;;;;;5063204;28;20573;-64
2024/01/15 01:11:56;;;;;;;16.10;15.30;;;0.40;99.90;;;;;;5064018;28;20199;-63
2024/01/15 01:14:24;;;;;;;16.97;16.07;;;0.40;99.90;;;;;;5070639;28;20235;-63
2024/01/15 01:16:51;;;;;;;17.17;16.27;;;0.40;99.90;;;;;;5077625;28;20658;-62
2024/01/15 01:19:18;;;;;;;16.13;15.23;;;0.50;99.90;;;;;;5072884;28;20203;-63
2024/01/15 01:21:44;;;;;;;16.33;15.52;;;0.40;99.90;;;;;;5069030;28;20231;-61
2024/01/15 01:24:11;;;;;;;15.47;14.77;;;0.50;99.90;;;;;;5069540;28;20245;-61
2024/01/15 01:26:38;;;;;;;15.90;15.10;;;0.50;99.90;;;;;;5070155;28;20203;-62
2024/01/15 01:29:04;;;;;;;14.73;14.03;;;0.60;99.90;;;;;;5063846;28;20219;-62
2024/01/15 01:31:32;;;;;;;16.63;15.73;;;0.60;99.90;;;;;;5069307;28;20569;-63
2024/01/15 01:33:59;;;;;;;15.52;14.73;;;0.60;99.90;;;;;;5069342;28;20234;-62
2024/01/15 01:36:26;;;;;;;16.60;15.80;;;0.60;99.90;;;;;;5067185;28;20222;-63
2024/01/15 01:38:53;;;;;;;16.17;15.37;;;0.50;99.90;;;;;;5066253;28;20204;-63
2024/01/15 01:41:20;;;;;;;14.53;13.83;;;0.60;99.90;;;;;;5069705;28;20234;-63
2024/01/15 01:43:46;;;;;;;14.63;13.93;;;0.60;99.90;;;;;;5065349;28;20310;-62
2024/01/15 01:46:13;;;;;;;15.00;14.23;;;0.50;99.90;;;;;;5071866;28;20680;-63
2024/01/15 01:48:41;;;;;;;16.63;15.75;;;0.60;99.90;;;;;;5067646;28;20217;-62
2024/01/15 01:51:08;;;;;;;15.57;14.77;;;0.70;99.90;;;;;;5065836;28;20619;-63
2024/01/15 01:53:37;;;;;;;15.47;14.67;;;0.70;99.90;;;;;;5066825;28;20231;-64
2024/01/15 01:56:05;;;;;;;15.70;14.90;;;0.80;99.90;;;;;;5069248;28;20203;-63
2024/01/15 01:58:34;;;;;;;15.30;14.50;;;0.80;99.90;;;;;;5069778;28;20211;-62
2024/01/15 02:01:01;;;;;;;15.88;15.07;;;0.80;99.90;;;;;;5070211;28;20223;-62
2024/01/15 02:03:28;;;;;;;14.73;14.03;;;0.80;99.90;;;;;;5068703;28;20243;-62
2024/01/15 02:05:56;;;;;;;14.17;13.47;;;0.90;99.90;;;;;;5074036;28;20207;-63
2024/01/15 02:08:23;;;;;;;15.23;14.53;;;0.90;99.90;;;;;;5074672;28;20215;-61
2024/01/15 02:10:50;;;;;;;14.80;14.02;;;1.00;99.90;;;;;;5067740;28;20214;-62
2024/01/15 02:13:18;;;;;;;15.05;14.35;;;1.00;99.90;;;;;;5068596;28;20219;-62
2024/01/15 02:15:44;;;;;;;15.03;14.33;;;1.00;99.90;;;;;;5070308;28;20210;-63
2024/01/15 02:18:11;;;;;;;14.40;13.70;;;1.00;99.90;;;;;;5067062;28;20222;-63
2024/01/15 02:20:38;;;;;;;14.50;13.80;;;1.00;99.90;;;;;;5065481;28;20211;-63
2024/01/15 02:23:10;;;;;;;14.60;13.90;;;1.00;99.90;;;;;;5069269;28;20303;-62
2024/01/15 02:25:38;;;;;;;14.23;13.53;;;1.00;99.90;;;;;;5064968;28;20472;-62
2024/01/15 02:28:06;;;;;;;15.60;14.80;;;1.00;99.90;;;;;;5067473;28;20580;-63
2024/01/15 02:30:33;;;;;;;14.70;14.00;;;1.00;99.90;;;;;;5068377;28;20203;-62
2024/01/15 02:33:00;;;;;;;15.10;14.30;;;1.00;99.90;;;;;;5069015;28;20236;-64
2024/01/15 02:35:26;;;;;;;14.83;14.03;;;1.00;99.90;;;;;;5064745;28;20600;-62
2024/01/15 02:37:53;;;;;;;15.23;14.43;;;1.00;99.90;;;;;;5068288;28;20682;-63
2024/01/15 02:40:21;;;;;;;15.03;14.33;;;1.00;99.90;;;;;;5070657;28;20234;-61
2024/01/15 02:42:48;;;;;;;14.27;13.57;;;0.90;99.90;;;;;;5065634;28;20219;-64
2024/01/15 02:45:15;;;;;;;14.80;14.10;;;0.90;99.90;;;;;;5071263;28;20230;-62
2024/01/15 02:47:41;;;;;;;14.97;14.27;;;0.90;99.90;;;;;;5071059;28;20211;-61
2024/01/15 02:50:08;;;;;;;14.60;13.90;;;0.90;99.90;;;;;;5065974;28;20199;-63
2024/01/15 02:52:35;;;;;;;15.63;14.83;;;0.90;99.90;;;;;;5066554;28;20200;-63
2024/01/15 02:55:02;;;;;;;15.70;14.77;;;0.90;99.90;;;;;;5064541;28;20227;-63
2024/01/15 02:57:30;;;;;;;15.10;14.30;;;0.90;99.90;;;;;;5067509;28;20207;-62
2024/01/15 02:59:56;;;;;;;15.57;14.77;;;0.80;99.90;;;;;;5068402;28;20585;-63
2024/01/15 03:02:23;;;;;;;13.83;13.23;;;0.80;99.90;;;;;;5070223;28;20223;-64
2024/01/15 03:04:50;;;;;;;13.93;13.23;;;0.90;99.90;;;;;;5067897;28;20238;-62
2024/01/15 03:07:17;;;;;;;16.17;15.27;;;0.90;99.90;;;;;;5067708;28;20984;-63
2024/01/15 03:09:43;;;;;;;15.73;14.93;;;0.90;99.90;;;;;;5065150;28;20257;-63
2024/01/15 03:12:11;;;;;;;14.57;13.87;;;0.90;99.90;;;;;;5066504;28;20230;-62
2024/01/15 03:14:39;;;;;;;15.20;14.40;;;0.90;99.90;;;;;;5067967;28;20691;-64
2024/01/15 03:17:05;;;;;;;15.50;14.70;;;0.90;99.90;;;;;;5068068;28;20226;-63
2024/01/15 03:19:35;;;;;;;15.48;14.68;;;0.90;99.90;;;;;;5069416;28;20210;-62
2024/01/15 03:22:03;;;;;;;14.43;13.73;;;0.90;99.90;;;;;;5065926;28;20211;-63
2024/01/15 03:24:30;;;;;;;13.80;13.20;;;0.90;99.90;;;;;;5067685;28;20313;-62
2024/01/15 03:26:56;;;;;;;14.73;14.03;;;0.90;99.90;;;;;;5069564;28;20203;-63
2024/01/15 03:29:23;;;;;;;14.70;14.00;;;0.90;99.90;;;;;;5069578;28;20223;-62
2024/01/15 03:31:51;;;;;;;14.30;13.60;;;0.80;99.90;;;;;;5069928;28;20211;-62
2024/01/15 03:34:18;;;;;;;15.40;14.60;;;0.80;99.90;;;;;;5067815;28;20362;-62
2024/01/15 03:36:45;;;;;;;14.67;13.90;;;0.90;99.90;;;;;;5069667;28;20215;-63
2024/01/15 03:39:11;;;;;;;14.43;13.63;;;0.80;99.90;;;;;;5067626;28;20207;-62
2024/01/15 03:41:38;;;;;;;15.73;14.93;;;0.90;99.90;;;;;;5067932;28;20210;-64
2024/01/15 03:44:05;;;;;;;15.27;14.47;;;0.90;99.90;;;;;;5067426;28;20227;-62
2024/01/15 03:46:32;;;;;;;14.67;13.97;;;1.00;99.90;;;;;;5066913;28;20731;-63
2024/01/15 03:49:00;;;;;;;15.03;14.23;;;1.00;99.90;;;;;;5066355;28;20222;-62
2024/01/15 03:51:27;;;;;;;14.50;13.80;;;1.00;99.90;;;;;;5069980;28;20318;-62
2024/01/15 03:53:53;;;;;;;14.63;13.93;;;1.10;99.90;;;;;;5066814;28;20587;-63
2024/01/15 03:56:20;;;;;;;15.07;14.27;;;1.20;99.90;;;;;;5069501;28;20211;-62
2024/01/15 03:58:47;;;;;;;16.13;15.23;;;1.10;99.90;;;;;;5065399;28;20211;-62
2024/01/15 04:01:14;;;;;;;14.97;14.27;;;1.10;99.90;;;;;;5070022;28;20199;-62
2024/01/15 04:03:41;;;;;;;15.33;14.50;;;1.10;99.90;;;;;;5071352;28;20731;-62
2024/01/15 04:06:09;;;;;;;16.40;15.60;;;1.00;99.90;;;;;;5069672;28;20207;-62
2024/01/15 04:08:35;;;;;;;14.63;13.90;;;1.00;99.90;;;;;;5073940;28;20199;-62
2024/01/15 04:11:02;;;;;;;14.30;13.70;;;1.10;99.90;;;;;;5075367;28;20222;-62
2024/01/15 04:13:29;;;;;;;15.73;14.93;;;1.00;99.90;;;;;;5074871;28;20216;-62
2024/01/15 04:15:56;;;;;;;13.60;13.00;;;1.10;99.90;;;;;;5074733;28;20203;-62
2024/01/15 04:18:22;;;;;;;14.00;13.30;;;1.00;99.90;;;;;;5074773;28;20218;-62
2024/01/15 04:20:49;;;;;;;15.37;14.67;;;1.10;99.90;;;;;;5075221;28;20218;-64
2024/01/15 04:23:17;;;;;;;14.97;14.27;;;1.10;99.90;;;;;;5071773;28;20227;-64
2024/01/15 04:25:45;;;;;;;14.37;13.67;;;1.20;99.90;;;;;;5073110;28;20219;-63
2024/01/15 04:28:12;;;;;;;14.43;13.73;;;1.20;99.90;;;;;;5070979;28;20206;-63
2024/01/15 04:30:39;;;;;;;15.13;14.43;;;1.20;99.90;;;;;;5069859;28;20214;-64
2024/01/15 04:33:06;;;;;;;14.50;13.80;;;1.20;99.90;;;;;;5071017;28;20205;-63
2024/01/15 04:35:34;;;;;;;14.60;13.90;;;1.20;99.90;;;;;;5071655;28;20202;-63
2024/01/15 04:38:00;;;;;;;15.40;14.60;;;1.30;99.90;;;;;;5071840;28;20212;-64
2024/01/15 04:40:28;;;;;;;14.50;13.80;;;1.30;99.90;;;;;;5069716;28;20206;-63
2024/01/15 04:42:55;;;;;;;14.10;13.40;;;1.20;99.90;;;;;;5071810;28;20250;-64
2024/01/15 04:45:22;;;;;;;14.47;13.77;;;1.30;99.90;;;;;;5072380;28;20223;-62
2024/01/15 04:47:49;;;;;;;14.33;13.63;;;1.30;99.90;;;;;;5070743;28;20204;-62
2024/01/15 04:50:16;;;;;;;14.67;13.97;;;1.30;99.90;;;;;;5071151;28;20727;-64
2024/01/15 04:52:43;;;;;;;14.33;13.53;;;1.40;99.90;;;;;;5071504;28;20202;-63
2024/01/15 04:55:10;;;;;;;15.33;14.53;;;1.40;99.90;;;;;;5068088;28;20227;-64
2024/01/15 04:57:38;;;;;;;15.05;14.25;;;1.50;99.90;;;;;;5067982;28;20587;-62
2024/01/15 05:00:05;;;;;;;14.63;13.93;;;1.50;99.90;;;;;;5083569;28;20215;-62
2024/01/15 05:02:32;;;;;;;14.30;13.60;;;1.50;99.90;;;;;;5075509;28;20638;-63
2024/01/15 05:04:59;;;;;;;14.23;13.63;;;1.50;99.90;;;;;;5067434;28;20333;-63
2024/01/15 05:07:26;;;;;;;15.30;14.50;;;1.50;99.90;;;;;;5071243;28;20211;-63
2024/01/15 05:09:52;;;;;;;15.23;14.47;;;1.60;99.90;;;;;;5066555;28;20204;-64
2024/01/15 05:12:19;;;;;;;14.47;13.77;;;1.50;99.90;;;;;;5069697;28;20655;-63
2024/01/15 05:14:47;;;;;;;14.77;14.07;;;1.50;99.90;;;;;;5068016;28;20227;-63
2024/01/15 05:17:14;;;;;;;14.80;14.07;;;1.50;99.90;;;;;;5067439;28;20238;-63
2024/01/15 05:19:40;;;;;;;14.20;13.40;;;1.60;99.90;;;;;;5071230;28;20210;-62
2024/01/15 05:22:07;;;;;;;14.47;13.77;;;1.50;99.90;;;;;;5070874;28;20229;-63
2024/01/15 05:24:34;;;;;;;14.60;13.90;;;1.50;99.90;;;;;;5065556;28;20231;-61
2024/01/15 05:27:00;;;;;;;13.87;13.27;;;1.50;99.90;;;;;;5070473;28;20218;-63
2024/01/15 05:29:27;;;;;;;15.07;14.37;;;1.50;99.90;;;;;;5069830;28;20329;-64
2024/01/15 05:31:55;;;;;;;14.43;13.73;;;1.50;99.90;;;;;;5073449;28;20348;-64
2024/01/15 05:34:22;;;;;;;14.52;13.82;;;1.50;99.90;;;;;;5073753;28;20268;-63
2024/01/15 05:36:49;;;;;;;14.40;13.70;;;1.40;99.90;;;;;;5068733;28;20233;-63
2024/01/15 05:39:16;;;;;;;14.43;13.73;;;1.50;99.90;;;;;;5071074;28;20219;-63
2024/01/15 05:41:42;;;;;;;14.33;13.63;;;1.60;99.90;;;;;;5067877;28;20227;-63
2024/01/15 05:44:09;;;;;;;13.97;13.37;;;1.60;99.90;;;;;;5067990;28;20231;-64
2024/01/15 05:46:36;;;;;;;13.05;12.45;;;1.60;99.90;;;;;;5065371;28;20258;-62
2024/01/15 05:49:04;;;;;;;14.37;13.67;;;1.60;99.90;;;;;;5070561;28;20302;-63
2024/01/15 05:51:31;;;;;;;13.33;12.73;;;1.60;99.90;;;;;;5071748;28;20215;-63
2024/01/15 05:53:58;;;;;;;13.80;13.20;;;1.70;99.90;;;;;;5079301;28;20235;-64
2024/01/15 05:56:25;;;;;;;14.10;13.50;;;1.70;99.90;;;;;;5079744;28;20199;-61
2024/01/15 05:58:53;;;;;;;13.97;13.37;;;1.70;99.90;;;;;;5080157;28;20215;-64
2024/01/15 06:01:19;;;;;;;14.30;13.60;;;1.70;99.90;;;;;;5077336;28;20294;-63
2024/01/15 06:03:47;;;;;;;14.50;13.80;;;1.70;99.90;;;;;;5069805;28;20345;-62
2024/01/15 06:06:15;;;;;;;13.83;13.23;;;1.70;99.90;;;;;;5066339;28;20203;-60
2024/01/15 06:08:42;;;;;;;14.35;13.65;;;1.60;99.90;;;;;;5068822;28;20245;-63
2024/01/15 06:11:08;;;;;;;13.23;12.63;;;1.60;99.90;;;;;;5069207;28;20214;-65
2024/01/15 06:13:35;;;;;;;13.60;13.00;;;1.60;99.90;;;;;;5071591;28;20237;-65
2024/01/15 06:16:02;;;;;;;14.00;13.30;;;1.70;99.90;;;;;;5068196;28;20207;-63
2024/01/15 06:18:29;;;;;;;14.20;13.60;;;1.70;99.90;;;;;;5060940;28;20230;-66
2024/01/15 06:20:55;;;;;;;13.90;13.20;;;1.80;99.90;;;;;;5067236;28;20665;-64
2024/01/15 06:23:23;;;;;;;13.67;13.07;;;1.80;99.90;;;;;;5069719;28;20227;-65
2024/01/15 06:25:50;;;;;;;14.20;13.50;;;1.80;99.90;;;;;;5066489;28;20686;-65
2024/01/15 06:28:17;;;;;;;14.27;13.57;;;1.90;99.90;;;;;;5072449;28;20241;-64
2024/01/15 06:30:44;;;;;;;13.90;13.20;;;1.90;99.90;;;;;;5068051;28;20207;-64
2024/01/15 06:33:10;;;;;;;14.60;13.90;;;1.90;99.90;;;;;;5067309;28;20218;-65
2024/01/15 06:35:37;;;;;;;14.07;13.37;;;1.90;99.90;;;;;;5072173;28;20210;-65
2024/01/15 06:38:04;;;;;;;13.63;12.97;;;2.00;99.90;;;;;;5070765;28;20230;-64
2024/01/15 06:40:32;;;;;;;13.83;13.13;;;2.00;99.90;;;;;;5071320;28;20205;-63
2024/01/15 06:42:59;;;;;;;14.25;13.55;;;1.90;99.90;;;;;;5070060;28;20219;-66
2024/01/15 06:45:26;;;;;;;12.93;12.33;;;1.90;99.90;;;;;;5069491;28;20203;-65
2024/01/15 06:47:52;;;;;;;14.17;13.47;;;1.90;99.90;;;;;;5078400;28;20956;-65
2024/01/15 06:50:19;;;;;;;13.63;13.03;;;1.90;99.90;;;;;;5081085;28;20215;-67
2024/01/15 06:52:46;;;;;;;12.95;12.35;;;1.90;99.90;;;;;;5079510;28;20199;-65
2024/01/15 06:55:13;;;;;;;14.53;13.83;;;1.90;99.90;;;;;;5083366;28;20577;-65
2024/01/15 06:57:41;;;;;;;13.52;12.85;;;1.90;99.90;;;;;;5082627;28;20655;-63
2024/01/15 07:00:09;;;;;;;13.13;12.53;;;1.90;99.90;;;;;;5063227;28;20210;-65
2024/01/15 07:02:36;;;;;;;14.30;13.60;;;1.90;99.90;;;;;;5069458;28;20206;-64
2024/01/15 07:05:04;;;;;;;13.30;12.70;;;1.90;99.90;;;;;;5067878;28;20242;-64
2024/01/15 07:07:31;;;;;;;15.45;14.65;;;1.90;99.90;;;;;;5067648;28;20203;-64
2024/01/15 07:09:58;;;;;;;12.80;12.17;;;1.90;99.90;;;;;;5068195;28;20579;-65
2024/01/15 07:12:25;;;;;;;13.35;12.75;;;1.90;99.90;;;;;;5069597;28;20202;-64
2024/01/15 07:14:53;;;;;;;14.03;13.33;;;1.90;99.90;;;;;;5069151;28;20223;-63
2024/01/15 07:17:19;;;;;;;14.43;13.73;;;1.90;99.90;;;;;;5071607;28;20211;-63
2024/01/15 07:19:46;;;;;;;13.20;12.60;;;1.90;99.90;;;;;;5069256;28;20203;-63
2024/01/15 07:22:13;;;;;;;14.52;13.82;;;1.90;99.90;;;;;;5067886;28;20203;-64
2024/01/15 07:24:40;;;;;;;13.20;12.60;;;1.90;99.90;;;;;;5069605;28;20234;-64
2024/01/15 07:27:08;;;;;;;13.83;13.23;;;1.80;99.90;;;;;;5068271;28;20222;-65
2024/01/15 07:29:37;;;;;;;13.00;12.40;;;1.90;99.90;;;;;;5064717;28;20253;-64
2024/01/15 07:32:07;;;;;;;13.53;12.93;;;1.80;99.90;;;;;;5069712;28;20654;-64
2024/01/15 07:34:34;;;;;;;13.23;12.63;;;1.90;99.90;;;;;;5071708;28;20215;-65
2024/01/15 07:37:01;;;;;;;13.53;12.83;;;1.80;99.90;;;;;;5073071;28;20215;-63
2024/01/15 07:39:28;;;;;;;13.23;12.63;;;1.90;99.90;;;;;;5073382;28;20720;-65
2024/01/15 07:41:55;;;;;;;12.97;12.37;;;1.90;99.90;;;;;;5073399;28;20238;-64
2024/01/15 07:44:22;;;;;;;13.17;12.57;;;1.90;99.90;;;;;;5073620;28;20957;-65
2024/01/15 07:46:49;;;;;;;12.50;12.00;;;1.90;99.90;;;;;;5076967;28;20203;-64
2024/01/15 07:49:17;;;;;;;14.20;13.50;;;2.00;99.90;;;;;;5077056;28;20203;-64
2024/01/15 07:51:44;;;;;;;13.47;12.83;;;2.00;99.90;;;;;;5080607;28;20222;-64
2024/01/15 07:54:11;;;;;;;13.00;12.40;;;2.00;99.90;;;;;;5076032;28;20705;-65
2024/01/15 07:56:57;;;;;;;12.90;12.30;;;2.00;99.90;;;;;;5073400;28;20225;-65
2024/01/15 07:59:23;;;;;;;13.03;12.33;;;2.00;99.90;;;;;;5071971;28;20215;-64
2024/01/15 08:01:50;;;;;;;13.60;12.90;;;2.10;99.90;;;;;;5073619;28;20678;-65
2024/01/15 08:04:18;;;;;;;13.10;12.50;;;2.00;99.90;;;;;;5073319;28;20226;-63
2024/01/15 08:06:45;;;;;;;12.67;12.17;;;2.10;99.90;;;;;;5072937;28;20202;-64
2024/01/15 08:09:13;;;;;;;13.70;13.00;;;2.10;99.90;;;;;;5066509;28;20204;-64
2024/01/15 08:11:41;;;;;;;13.40;12.80;;;2.10;99.90;;;;;;5068440;28;20280;-65
2024/01/15 08:14:08;;;;;;;13.33;12.70;;;2.10;99.90;;;;;;5073213;28;20215;-64
2024/01/15 08:16:34;;;;;;;12.83;12.30;;;2.10;99.90;;;;;;5069985;28;20207;-64
2024/01/15 08:19:01;;;;;;;13.63;13.03;;;2.00;99.90;;;;;;5069642;28;20219;-65
2024/01/15 08:21:30;;;;;;;12.80;12.20;;;2.00;99.90;;;;;;5066976;28;20204;-64
2024/01/15 08:23:57;;;;;;;13.60;13.00;;;2.00;99.90;;;;;;5066358;28;20223;-63
2024/01/15 08:26:24;;;;;;;13.40;12.80;;;2.10;99.90;;;;;;5069129;28;20225;-65
2024/01/15 08:28:50;;;;;;;13.40;12.80;;;2.20;99.90;;;;;;5066876;28;20207;-63
2024/01/15 08:31:17;;;;;;;13.73;13.13;;;2.20;99.90;;;;;;5069690;28;20559;-65
2024/01/15 08:33:44;;;;;;;13.63;13.03;;;2.10;99.90;;;;;;5069430;28;20237;-64
2024/01/15 08:36:11;;;;;;;13.67;13.03;;;2.10;99.90;;;;;;5067749;28;20204;-64
2024/01/15 08:38:39;;;;;;;13.63;13.03;;;2.10;99.90;;;;;;5069456;28;20205;-63
2024/01/15 08:41:08;;;;;;;14.17;13.47;;;2.10;99.90;;;;;;5075150;28;20203;-63
2024/01/15 08:43:35;;;;;;;14.20;13.50;;;2.10;99.90;;;;;;5076179;28;20230;-63
2024/01/15 08:46:02;;;;;;;14.20;13.50;;;2.10;99.90;;;;;;5071379;28;20214;-65
2024/01/15 08:48:29;;;;;;;14.27;13.57;;;2.00;99.90;;;;;;5065306;28;20203;-64
2024/01/15 08:50:56;;;;;;;14.83;14.13;;;2.00;99.90;;;;;;5069072;28;20206;-63
2024/01/15 08:53:23;;;;;;;14.13;13.43;;;2.00;99.90;;;;;;5069905;28;20310;-64
2024/01/15 08:55:51;;;;;;;15.73;14.93;;;1.90;99.90;;;;;;5065509;28;20202;-63
2024/01/15 08:58:18;;;;;;;14.13;13.37;;;1.90;99.90;;;;;;5068022;28;20220;-65
2024/01/15 09:00:45;;;;;;;15.77;14.97;;;1.90;99.90;;;;;;5071947;28;20253;-64
2024/01/15 09:03:12;;;;;;;16.00;15.20;;;1.90;99.90;;;;;;5070768;28;20206;-66
2024/01/15 09:05:38;;;;;;;16.00;15.20;;;1.90;99.90;;;;;;5070407;28;20238;-64
2024/01/15 09:08:06;;;;;;;15.13;14.37;;;2.00;99.90;;;;;;5068629;28;20208;-63
2024/01/15 09:10:32;;;;;;;16.13;15.33;;;2.00;99.90;;;;;;5069537;28;20583;-64
2024/01/15 09:13:01;;;;;;;15.73;14.90;;;1.90;99.90;;;;;;5067343;28;20211;-64
2024/01/15 09:15:27;;;;;;;15.43;14.63;;;2.00;99.90;;;;;;5069536;28;20207;-64
2024/01/15 09:17:54;;;;;;;16.00;15.20;;;2.00;99.90;;;;;;5065513;28;20211;-64
2024/01/15 09:20:21;;;;;;;14.18;13.48;;;2.10;99.90;;;;;;5069159;28;20282;-65
2024/01/15 09:22:47;;;;;;;15.70;14.90;;;2.20;99.90;;;;;;5069350;28;20207;-63
2024/01/15 09:25:14;;;;;;;15.10;14.40;;;2.10;99.90;;;;;;5070688;28;20253;-64
2024/01/15 09:27:42;;;;;;;15.07;14.27;;;2.10;99.90;;;;;;5063577;28;20278;-64
2024/01/15 09:30:11;;;;;;;14.88;14.18;;;2.10;99.90;;;;;;5069609;28;20269;-64
2024/01/15 09:32:37;;;;;;;15.40;14.70;;;2.20;99.90;;;;;;5066997;28;20581;-65
2024/01/15 09:35:05;;;;;;;14.57;13.87;;;2.40;99.90;;;;;;5070917;28;20231;-64
2024/01/15 09:37:32;;;;;;;15.40;14.57;;;2.50;99.90;;;;;;5067962;28;20203;-64
2024/01/15 09:39:59;;;;;;;14.37;13.67;;;2.50;99.90;;;;;;5068932;28;20689;-63
2024/01/15 09:42:26;;;;;;;14.30;13.67;;;2.50;99.90;;;;;;5067488;28;20219;-64
2024/01/15 09:44:53;;;;;;;14.30;13.60;;;2.50;99.90;;;;;;5070245;28;20223;-64
2024/01/15 09:47:22;;;;;;;16.30;15.37;;;2.60;99.90;;;;;;5070761;28;20936;-64
2024/01/15 09:49:49;;;;;;;15.07;14.37;;;2.60;99.90;;;;;;5068581;28;20195;-64
2024/01/15 09:52:19;;;;;;;14.65;13.95;;;2.60;99.90;;;;;;5071768;28;20204;-64
2024/01/15 09:54:47;;;;;;;13.50;12.90;;;2.70;99.90;;;;;;5068112;28;20223;-63
2024/01/15 09:57:14;;;;;;;14.30;13.70;;;2.70;99.90;;;;;;5069162;28;20200;-64
2024/01/15 09:59:43;;;;;;;13.47;12.87;;;2.80;99.90;;;;;;5072786;28;20793;-64
2024/01/15 10:02:15;;;;;;;13.20;12.60;;;2.80;99.90;;;;;;5072170;28;20196;-64
2024/01/15 10:04:44;;;;;;;13.95;13.35;;;2.80;99.90;;;;;;5071703;28;20309;-63
2024/01/15 10:07:15;;;;;;;13.67;13.07;;;2.80;99.90;;;;;;5072017;28;20227;-63
2024/01/15 10:09:42;;;;;;;13.93;13.23;;;2.90;99.90;;;;;;5071406;28;20222;-64
2024/01/15 10:12:10;;;;;;;13.80;13.20;;;2.90;99.90;;;;;;5068434;28;20212;-64
2024/01/15 10:14:37;;;;;;;13.95;13.35;;;2.90;99.90;;;;;;5071203;28;20215;-64
2024/01/15 10:17:13;;;;;;;14.40;13.80;;;3.00;99.90;;;;;;5066831;28;20207;-65
2024/01/15 10:19:41;;;;;;;14.33;13.73;;;2.90;99.90;;;;;;5067631;28;20203;-63
2024/01/15 10:22:09;;;;;;;14.27;13.67;;;3.00;99.90;;;;;;5067186;28;20253;-63
2024/01/15 10:24:37;;;;;;;14.20;13.60;;;3.00;99.90;;;;;;5069782;28;20223;-64
2024/01/15 10:27:07;;;;;;;13.63;13.03;;;3.00;99.90;;;;;;5070631;28;20207;-64
2024/01/15 10:29:34;;;;;;;14.13;13.53;;;3.00;99.90;;;;;;5079693;28;20210;-64
2024/01/15 10:32:02;;;;;;;14.17;13.57;;;3.00;99.90;;;;;;5075784;28;20207;-64
2024/01/15 10:34:29;;;;;;;14.23;13.63;;;3.10;99.90;;;;;;5073210;28;20215;-64
2024/01/15 10:36:56;;;;;;;14.27;13.67;;;3.10;99.90;;;;;;5070915;28;20195;-64
2024/01/15 10:39:24;;;;;;;14.00;13.40;;;3.10;99.90;;;;;;5069918;28;20655;-63
2024/01/15 10:41:51;;;;;;;14.13;13.53;;;3.10;99.90;;;;;;5062747;28;20938;-64
2024/01/15 10:44:18;;;;;;;13.70;13.10;;;3.00;99.90;;;;;;5070921;28;20224;-65
2024/01/15 10:46:47;;;;;;;13.80;13.20;;;3.10;99.90;;;;;;5073917;28;20215;-64
2024/01/15 10:49:13;;;;;;;14.13;13.53;;;3.10;99.90;;;;;;5070779;28;20229;-64
2024/01/15 10:51:41;;;;;;;13.23;12.67;;;3.10;99.90;;;;;;5072895;28;20582;-62
2024/01/15 10:54:10;;;;;;;14.20;13.60;;;3.10;99.90;;;;;;5068897;28;20223;-64
2024/01/15 10:56:41;;;;;;;12.70;12.20;;;3.10;99.90;;;;;;5068813;28;20203;-63
2024/01/15 10:59:10;;;;;;;13.10;12.60;;;3.20;99.90;;;;;;5064346;28;20215;-64
2024/01/15 11:01:37;;;;;;;13.07;12.57;;;3.20;99.90;;;;;;5071759;28;20237;-64
2024/01/15 11:04:05;;;;;;;13.23;12.63;;;3.20;99.90;;;;;;5071564;28;20709;-63
2024/01/15 11:06:43;;;;;;;12.87;12.37;;;3.30;99.90;;;;;;5070905;28;20853;-65
2024/01/15 11:09:10;;;;;;;13.57;12.97;;;3.30;99.90;;;;;;5066765;28;20212;-64
2024/01/15 11:11:37;;;;;;;12.87;12.37;;;3.30;99.90;;;;;;5070933;28;20273;-64
2024/01/15 11:14:06;;;;;;;13.37;12.77;;;3.30;99.90;;;;;;5067269;28;20223;-64
2024/01/15 11:16:59;;;;;;;12.40;11.90;;;3.30;99.90;;;;;;5064992;28;20206;-63
2024/01/15 11:19:26;;;;;;;12.80;12.30;;;3.20;99.90;;;;;;5066339;28;20210;-63
2024/01/15 11:21:55;;;;;;;13.30;12.70;;;3.20;99.90;;;;;;5064086;28;20216;-64
2024/01/15 11:24:38;;;;;;;13.55;12.95;;;3.20;99.90;;;;;;5069171;28;20310;-65
2024/01/15 11:27:05;;;;;;;13.33;12.73;;;3.10;99.90;;;;;;5066836;28;20206;-64
2024/01/15 11:29:36;;;;;;;12.43;11.93;;;3.10;99.90;;;;;;5069927;28;20207;-64
2024/01/15 11:32:05;;;;;;;12.40;11.90;;;3.10;99.90;;;;;;5080326;28;20258;-64
2024/01/15 11:34:51;;;;;;;12.57;12.07;;;3.20;99.90;;;;;;5078805;28;20226;-64
2024/01/15 11:37:18;;;;;;;13.40;12.83;;;3.10;99.90;;;;;;5077367;28;20963;-64
2024/01/15 11:39:46;;;;;;;12.70;12.20;;;3.20;99.90;;;;;;5082066;28;20226;-64
2024/01/15 11:42:14;;;;;;;12.63;12.13;;;3.20;99.90;;;;;;5085354;28;20211;-65
2024/01/15 11:44:42;;;;;;;13.10;12.60;;;3.10;99.90;;;;;;5082524;28;20768;-64
2024/01/15 11:47:12;;;;;;;12.80;12.30;;;3.20;99.90;;;;;;5082075;28;20226;-64
2024/01/15 11:50:01;;;;;;;12.82;12.32;;;3.20;99.90;;;;;;5079009;28;20199;-65
2024/01/15 11:52:33;;;;;;;12.40;11.90;;;3.20;99.90;;;;;;5067478;28;20206;-64
2024/01/15 11:55:06;;;;;;;12.60;12.10;;;3.20;99.90;;;;;;5066974;28;20736;-64
2024/01/15 11:57:43;;;;;;;13.90;13.20;;;3.20;99.90;;;;;;5064944;28;20202;-64
2024/01/15 12:00:13;;;;;;;12.97;12.47;;;3.20;99.90;;;;;;5067112;28;20674;-63
2024/01/15 12:02:41;;;;;;;13.13;12.63;;;3.10;99.90;;;;;;5068568;28;20203;-63
2024/01/15 12:05:08;;;;;;;13.50;12.90;;;3.00;99.90;;;;;;5068046;28;20230;-65
2024/01/15 12:07:35;;;;;;;12.97;12.47;;;3.00;99.90;;;;;;5068247;28;20211;-64
2024/01/15 12:10:02;;;;;;;13.57;12.97;;;3.00;99.90;;;;;;5066687;28;20211;-64
2024/01/15 12:12:40;;;;;;;12.37;11.87;;;3.00;99.90;;;;;;5065855;28;20200;-63
2024/01/15 12:15:08;;;;;;;13.20;12.60;;;3.00;99.90;;;;;;5065638;28;20728;-65
2024/01/15 12:17:36;;;;;;;13.57;12.97;;;3.10;99.90;;;;;;5066615;28;20207;-64
2024/01/15 12:20:03;;;;;;;13.47;12.87;;;3.10;99.90;;;;;;5068983;28;20217;-63
2024/01/15 12:22:30;;;;;;;12.97;12.47;;;3.00;99.90;;;;;;5068404;28;20377;-62
2024/01/15 12:24:57;;;;;;;13.50;12.83;;;3.00;99.90;;;;;;5071489;28;20219;-63
2024/01/15 12:27:24;;;;;;;15.27;14.57;;;2.90;99.90;;;;;;5070754;28;20207;-64
2024/01/15 12:29:51;;;;;;;13.80;13.20;;;2.90;99.90;;;;;;5078940;28;20203;-64
2024/01/15 12:32:20;;;;;;;12.57;11.97;;;2.90;99.90;;;;;;5079249;28;20279;-63
2024/01/15 12:34:50;;;;;;;13.10;12.60;;;2.90;99.90;;;;;;5072678;28;20223;-63
2024/01/15 12:37:19;;;;;;;14.20;13.60;;;2.90;99.90;;;;;;5073176;28;20214;-64